Time;durP1;ratioP1;P1;durP2;ratioP2;P2;SDS_P1;SDS_P2;PMS_P1;PMS_P2;Temp;Humidity;BMP_temperature;BMP_pressure;BME280_temperature;BME280_humidity;BME280_pressure;Samples;Min_cycle;Max_cycle;Signal;HPM_P1;HPM_P2
2022/09/24 00:01:11;;;;;;;24.40;17.03;;;;;;;7.42;80.26;95157.06;4999520;28;20184;-75
2022/09/24 00:03:38;;;;;;;25.60;17.20;;;;;;;7.46;79.93;95171.41;5010036;28;20257;-74
2022/09/24 00:06:05;;;;;;;26.23;18.17;;;;;;;7.40;80.34;95172.97;5012582;28;20176;-74
2022/09/24 00:08:31;;;;;;;25.03;17.70;;;;;;;7.54;80.51;95197.50;5012551;28;20220;-74
2022/09/24 00:11:01;;;;;;;27.57;18.37;;;;;;;7.52;80.24;95191.66;5012412;28;20600;-74
2022/09/24 00:13:26;;;;;;;24.33;18.00;;;;;;;7.50;80.77;95193.63;5012633;28;20176;-74
2022/09/24 00:15:52;;;;;;;26.10;18.97;;;;;;;7.47;80.41;95191.38;5012386;28;20196;-74
2022/09/24 00:18:20;;;;;;;23.67;19.33;;;;;;;7.40;80.39;95172.97;5006943;28;20659;-74
2022/09/24 00:20:45;;;;;;;29.07;19.93;;;;;;;7.38;80.50;95179.38;5012380;28;20184;-74
2022/09/24 00:23:11;;;;;;;32.30;24.50;;;;;;;7.35;81.12;95179.75;5010227;28;20184;-74
2022/09/24 00:28:29;;;;;;;32.07;23.93;;;;;;;7.12;81.44;95167.56;5012459;28;20327;-74
2022/09/24 00:30:58;;;;;;;32.43;23.90;;;;;;;7.25;81.19;95179.22;5012142;28;20207;-74
2022/09/24 00:33:25;;;;;;;32.93;23.70;;;;;;;7.13;81.13;95168.38;5012067;28;20184;-74
2022/09/24 00:35:51;;;;;;;30.40;22.00;;;;;;;7.19;81.38;95189.41;5011956;28;20215;-74
2022/09/24 00:38:17;;;;;;;33.30;24.10;;;;;;;7.19;80.88;95181.56;5011700;28;20179;-74
2022/09/24 00:40:43;;;;;;;29.93;22.30;;;;;;;7.13;81.09;95184.09;5012238;28;20568;-74
2022/09/24 00:43:28;;;;;;;32.10;22.70;;;;;;;7.05;81.45;95179.78;5012079;28;20168;-74
2022/09/24 00:46:18;;;;;;;32.47;24.13;;;;;;;7.04;81.54;95174.72;5003245;28;20180;-74
2022/09/24 00:48:46;;;;;;;31.70;23.50;;;;;;;6.96;81.41;95169.56;4994202;28;20194;-74
2022/09/24 00:51:16;;;;;;;35.93;23.97;;;;;;;7.06;81.51;95177.97;5011823;28;20180;-74
2022/09/24 00:53:42;;;;;;;37.37;23.77;;;;;;;7.04;81.54;95179.94;5011704;28;20180;-74
2022/09/24 00:56:10;;;;;;;36.13;24.37;;;;;;;6.89;81.67;95156.41;4994098;28;20227;-74
2022/09/24 00:58:36;;;;;;;34.03;22.90;;;;;;;6.95;81.92;95157.47;5011625;28;20184;-74
2022/09/24 01:01:06;;;;;;;33.43;22.60;;;;;;;7.02;81.64;95174.06;5011640;28;20187;-74
2022/09/24 01:03:38;;;;;;;35.47;24.03;;;;;;;6.97;81.67;95163.34;5011477;28;20212;-74
2022/09/24 01:06:04;;;;;;;31.90;23.80;;;;;;;6.82;82.15;95150.28;5009140;28;20231;-74
2022/09/24 01:08:29;;;;;;;39.00;24.40;;;;;;;6.99;81.64;95172.66;5011449;28;20575;-74
2022/09/24 01:11:01;;;;;;;41.57;24.80;;;;;;;6.91;81.83;95172.75;5011743;28;20537;-74
2022/09/24 01:13:48;;;;;;;34.03;23.97;;;;;;;6.92;82.00;95173.56;5011905;28;20176;-74
2022/09/24 01:16:13;;;;;;;33.03;20.97;;;;;;;6.91;81.58;95167.50;5004386;28;20184;-74
2022/09/24 01:18:49;;;;;;;29.90;18.03;;;;;;;6.86;81.77;95172.44;4993504;28;20228;-74
2022/09/24 01:21:26;;;;;;;24.33;14.97;;;;;;;6.71;81.95;95151.53;5011195;28;20559;-74
2022/09/24 01:24:13;;;;;;;26.37;15.43;;;;;;;6.86;81.62;95172.44;5011278;28;20180;-74
2022/09/24 01:26:44;;;;;;;22.73;16.13;;;;;;;6.84;81.43;95174.44;5011192;28;20177;-74
2022/09/24 01:29:20;;;;;;;22.33;15.83;;;;;;;6.82;81.45;95166.78;5011160;28;20235;-74
2022/09/24 01:31:52;;;;;;;24.80;15.57;;;;;;;6.68;81.95;95144.03;5007166;28;20172;-74
2022/09/24 01:34:25;;;;;;;27.57;15.80;;;;;;;6.78;81.83;95168.13;5010741;28;20207;-74
2022/09/24 01:36:54;;;;;;;26.63;15.80;;;;;;;6.75;82.11;95165.03;5010950;28;20179;-74
2022/09/24 01:39:21;;;;;;;23.80;14.80;;;;;;;6.73;82.02;95164.44;4993825;28;20625;-74
2022/09/24 01:41:48;;;;;;;22.67;14.27;;;;;;;6.67;81.76;95163.31;5011209;28;20184;-74
2022/09/24 01:44:17;;;;;;;18.77;12.80;;;;;;;6.64;82.20;95168.13;5011174;28;20173;-74
2022/09/24 01:46:43;;;;;;;23.17;13.90;;;;;;;6.42;82.28;95136.59;5011068;28;20670;-74
2022/09/24 01:49:08;;;;;;;18.87;10.93;;;;;;;6.67;81.90;95173.78;4992670;28;20176;-74
2022/09/24 01:51:42;;;;;;;20.40;12.00;;;;;;;6.65;81.77;95175.78;5010668;28;20193;-74
2022/09/24 01:54:24;;;;;;;18.33;11.33;;;;;;;6.62;81.73;95180.56;5010887;28;20196;-74
2022/09/24 01:56:55;;;;;;;18.50;11.27;;;;;;;6.63;81.80;95176.94;5010711;28;20849;-74
2022/09/24 02:00:04;;;;;;;17.60;10.50;;;;;;;6.57;81.93;95181.09;5010753;28;20659;-74
2022/09/24 02:02:51;;;;;;;16.70;7.80;;;;;;;6.54;82.32;95178.03;5001639;28;20693;-74
2022/09/24 02:05:30;;;;;;;12.60;8.60;;;;;;;6.52;81.78;95186.03;5009736;28;20211;-74
2022/09/24 02:08:21;;;;;;;13.27;8.30;;;;;;;6.50;82.14;95193.25;5010636;28;20179;-74
2022/09/24 02:10:49;;;;;;;15.63;7.73;;;;;;;6.51;82.08;95194.88;5004152;28;20179;-74
2022/09/24 02:13:18;;;;;;;9.83;7.10;;;;;;;6.45;81.97;95195.59;5010943;28;20179;-74
2022/09/24 02:15:48;;;;;;;17.33;7.73;;;;;;;6.38;82.36;95187.63;5010736;28;20287;-74
2022/09/24 02:18:18;;;;;;;12.73;6.40;;;;;;;6.41;82.58;95199.53;5010490;28;20190;-74
2022/09/24 02:20:46;;;;;;;10.93;6.50;;;;;;;6.38;82.42;95198.09;5010378;28;20311;-74
2022/09/24 02:23:14;;;;;;;13.43;7.07;;;;;;;6.40;82.19;95203.94;5010720;28;20200;-74
2022/09/24 02:25:46;;;;;;;10.17;5.87;;;;;;;6.37;82.37;95200.88;5002834;28;20604;-74
2022/09/24 02:28:11;;;;;;;8.17;5.70;;;;;;;6.32;82.35;95198.78;5010566;28;20176;-74
2022/09/24 02:30:42;;;;;;;11.47;6.50;;;;;;;6.34;82.64;95209.06;5010668;28;20697;-74
2022/09/24 02:34:19;;;;;;;10.77;6.43;;;;;;;6.26;82.79;95206.53;5010544;28;20176;-75
2022/09/24 02:35:56;;;;;;;11.57;5.90;;;;;;;6.28;83.15;95212.41;5003937;28;20273;-74
2022/09/24 02:38:22;;;;;;;8.93;5.63;;;;;;;6.28;82.67;95215.81;5010546;28;20169;-74
2022/09/24 02:40:48;;;;;;;9.53;5.37;;;;;;;6.27;82.78;95214.19;5010736;28;20183;-74
2022/09/24 02:43:14;;;;;;;10.97;6.30;;;;;;;6.25;83.24;95216.16;5010632;28;20206;-75
2022/09/24 02:45:39;;;;;;;11.40;6.37;;;;;;;6.25;83.03;95217.97;5010467;28;20244;-75
2022/09/24 02:48:05;;;;;;;11.63;6.90;;;;;;;6.28;82.49;95221.06;5010519;28;20168;-74
2022/09/24 02:50:30;;;;;;;8.83;6.40;;;;;;;6.21;82.78;95225.34;5010577;28;20298;-74
2022/09/24 02:52:55;;;;;;;9.17;6.13;;;;;;;6.19;82.79;95231.75;4992955;28;20671;-74
2022/09/24 02:55:21;;;;;;;9.60;6.80;;;;;;;6.21;83.15;95224.53;5010281;28;20283;-74
2022/09/24 02:57:46;;;;;;;11.30;7.17;;;;;;;6.18;82.49;95232.72;5010422;28;20168;-74
2022/09/24 03:00:12;;;;;;;8.77;7.00;;;;;;;6.12;82.89;95234.25;5012135;28;20172;-74
2022/09/24 03:02:38;;;;;;;12.17;7.50;;;;;;;5.99;82.81;95219.13;5014196;28;20926;-74
2022/09/24 03:05:04;;;;;;;10.20;6.60;;;;;;;6.09;82.97;95231.16;5013861;28;20169;-74
2022/09/24 03:07:29;;;;;;;9.97;6.70;;;;;;;6.10;83.17;95233.59;5013868;28;20168;-74
2022/09/24 03:09:54;;;;;;;12.00;6.90;;;;;;;6.11;82.81;95234.41;5013987;28;20558;-74
2022/09/24 03:12:20;;;;;;;13.53;8.00;;;;;;;6.11;82.37;95234.41;5013900;28;20231;-74
2022/09/24 03:14:45;;;;;;;11.60;7.23;;;;;;;6.08;82.58;95235.56;5013763;28;20687;-74
2022/09/24 03:17:11;;;;;;;17.07;8.90;;;;;;;6.07;82.63;95237.34;5013579;28;20172;-74
2022/09/24 03:19:36;;;;;;;12.33;7.43;;;;;;;6.07;83.08;95231.31;5013450;28;20260;-74
2022/09/24 03:22:02;;;;;;;12.57;7.57;;;;;;;6.06;83.01;95232.31;5011821;28;20550;-74
2022/09/24 03:24:27;;;;;;;11.30;8.43;;;;;;;6.06;83.11;95234.91;5015414;28;20172;-74
2022/09/24 03:26:52;;;;;;;12.70;8.67;;;;;;;6.05;83.27;95236.72;5033328;28;20178;-74
2022/09/24 03:30:58;;;;;;;13.23;8.67;;;;;;;6.09;82.96;95234.56;5033382;28;20179;-74
2022/09/24 03:32:03;;;;;;;11.27;7.67;;;;;;;5.86;83.05;95210.22;5033498;28;20337;-74
2022/09/24 03:34:28;;;;;;;13.57;8.50;;;;;;;6.05;83.07;95238.53;5033238;28;20212;-74
2022/09/24 03:36:54;;;;;;;22.17;9.93;;;;;;;6.04;83.40;95239.53;5033244;28;20176;-75
2022/09/24 03:39:19;;;;;;;10.97;6.73;;;;;;;5.94;83.27;95244.97;5033334;28;20601;-74
2022/09/24 03:41:44;;;;;;;10.07;7.60;;;;;;;5.67;83.74;95209.66;5033270;28;20199;-74
2022/09/24 03:44:10;;;;;;;14.90;7.97;;;;;;;5.90;84.02;95248.09;5015279;28;20168;-74
2022/09/24 03:46:35;;;;;;;13.40;7.27;;;;;;;5.91;84.00;95247.09;5032887;28;20241;-74
2022/09/24 03:49:00;;;;;;;12.23;7.70;;;;;;;5.87;83.98;95241.41;5032853;28;20720;-74
2022/09/24 03:51:26;;;;;;;10.77;7.20;;;;;;;5.78;83.58;95220.72;5032806;28;20179;-74
2022/09/24 03:53:51;;;;;;;9.43;6.30;;;;;;;5.94;83.35;95252.81;5032595;28;20172;-75
2022/09/24 03:56:17;;;;;;;11.17;7.10;;;;;;;5.89;83.22;95254.28;5017469;28;20704;-74
2022/09/24 03:58:46;;;;;;;17.53;8.13;;;;;;;5.87;83.45;95251.03;5013087;28;20252;-74
2022/09/24 04:01:12;;;;;;;11.30;6.50;;;;;;;5.80;82.78;95239.59;5012717;28;20255;-74
2022/09/24 04:03:39;;;;;;;12.03;7.47;;;;;;;5.84;82.58;95257.41;5004814;28;20247;-74
2022/09/24 04:06:05;;;;;;;13.27;8.67;;;;;;;5.77;83.04;95256.47;5012888;28;20184;-74
2022/09/24 04:08:31;;;;;;;15.03;7.90;;;;;;;5.76;82.93;95251.41;5012985;28;20168;-74
2022/09/24 04:10:57;;;;;;;13.00;8.37;;;;;;;5.78;82.88;95252.06;5012559;28;20651;-74
2022/09/24 04:13:22;;;;;;;18.07;10.23;;;;;;;5.71;82.85;95254.50;5012583;28;20199;-74
2022/09/24 04:15:49;;;;;;;12.57;7.97;;;;;;;5.43;83.04;95215.00;5012773;28;20355;-74
2022/09/24 04:18:14;;;;;;;20.90;7.90;;;;;;;5.45;83.42;95228.69;5020772;28;20200;-74
2022/09/24 04:20:40;;;;;;;10.60;7.20;;;;;;;5.64;83.39;95243.94;5012378;28;20227;-74
2022/09/24 04:23:06;;;;;;;14.33;8.13;;;;;;;5.73;83.03;95259.56;5012526;28;20686;-74
2022/09/24 04:25:33;;;;;;;18.43;9.40;;;;;;;5.64;83.08;95257.00;5012477;28;20160;-74
2022/09/24 04:28:00;;;;;;;16.97;9.50;;;;;;;5.70;83.38;95271.19;5012664;28;20184;-75
2022/09/24 04:30:27;;;;;;;16.13;10.07;;;;;;;5.72;83.05;95279.66;5012296;28;20176;-75
2022/09/24 04:32:53;;;;;;;26.30;15.10;;;;;;;5.49;83.00;95239.63;5012088;28;20180;-75
2022/09/24 04:35:20;;;;;;;19.93;11.57;;;;;;;5.75;83.12;95281.94;5011872;28;20196;-76
2022/09/24 04:37:47;;;;;;;21.90;12.87;;;;;;;5.56;83.34;95251.00;5011901;28;20175;-75
2022/09/24 04:40:13;;;;;;;22.80;13.23;;;;;;;5.79;83.26;95271.97;5012124;28;20168;-75
2022/09/24 04:42:39;;;;;;;27.33;11.83;;;;;;;5.61;82.75;95246.09;5012572;28;20179;-75
2022/09/24 04:45:06;;;;;;;28.70;12.77;;;;;;;5.81;82.78;95269.97;5012378;28;20176;-75
2022/09/24 04:47:33;;;;;;;28.23;14.10;;;;;;;5.71;83.48;95257.13;5012197;28;20715;-74
2022/09/24 04:49:59;;;;;;;24.23;13.53;;;;;;;5.81;83.58;95273.41;5012450;28;20176;-75
2022/09/24 04:52:28;;;;;;;30.37;15.30;;;;;;;5.92;84.15;95264.41;4994776;28;20238;-75
2022/09/24 04:54:54;;;;;;;25.97;14.70;;;;;;;6.14;83.85;95263.59;5012298;28;20291;-75
2022/09/24 04:57:20;;;;;;;31.40;14.97;;;;;;;6.72;82.62;95270.06;5012146;28;20247;-75
2022/09/24 04:59:46;;;;;;;27.53;14.30;;;;;;;7.76;81.20;95271.75;5011907;28;20238;-75
2022/09/24 05:02:11;;;;;;;25.60;13.53;;;;;;;8.99;77.37;95277.66;5012335;28;20247;-75
2022/09/24 05:04:37;;;;;;;23.33;15.93;;;;;;;10.18;73.37;95284.41;5012192;28;20258;-76
2022/09/24 05:07:03;;;;;;;25.80;13.70;;;;;;;11.11;68.12;95286.16;5012282;28;20639;-75
2022/09/24 05:09:32;;;;;;;22.80;14.03;;;;;;;11.92;65.74;95285.84;5011956;28;20534;-76
2022/09/24 05:11:58;;;;;;;20.77;13.27;;;;;;;12.61;62.89;95291.22;5011826;28;20188;-76
2022/09/24 05:14:23;;;;;;;27.93;14.63;;;;;;;13.16;61.29;95291.47;5011753;28;20698;-76
2022/09/24 05:16:49;;;;;;;12.80;8.93;;;;;;;13.41;60.05;95283.50;5011541;28;20172;-75
2022/09/24 05:19:14;;;;;;;16.67;9.27;;;;;;;13.92;59.02;95291.94;5011584;28;20303;-76
2022/09/24 05:21:40;;;;;;;18.65;10.57;;;;;;;14.30;57.57;95288.25;5011829;28;20180;-76
2022/09/24 05:24:05;;;;;;;18.95;10.02;;;;;;;14.31;56.93;95261.56;5011838;28;20251;-76
2022/09/24 05:29:14;;;;;;;13.40;7.53;;;;;;;14.76;55.76;95286.88;5011515;28;20659;-75
2022/09/24 05:31:40;;;;;;;9.30;6.45;;;;;;;14.70;56.06;95288.59;5011343;28;20168;-75
2022/09/24 05:34:05;;;;;;;10.10;7.05;;;;;;;14.99;55.56;95297.53;5017860;28;20575;-75
2022/09/24 05:36:31;;;;;;;10.95;6.72;;;;;;;15.03;54.97;95309.31;5031010;28;20168;-75
2022/09/24 05:38:56;;;;;;;11.57;7.05;;;;;;;15.02;55.41;95305.84;5023851;28;20262;-75
2022/09/24 05:41:22;;;;;;;13.27;7.22;;;;;;;15.04;55.88;95308.28;5011347;28;20234;-75
2022/09/24 05:43:48;;;;;;;19.67;6.97;;;;;;;15.25;55.48;95305.06;5011681;28;20607;-76
2022/09/24 05:46:13;;;;;;;8.95;6.82;;;;;;;15.46;54.87;95293.13;5011039;28;20258;-76
2022/09/24 05:48:38;;;;;;;17.30;6.78;;;;;;;15.56;54.37;95293.38;5010981;28;20172;-75
2022/09/24 05:51:07;;;;;;;13.50;6.60;;;;;;;15.72;53.70;95316.56;5010916;28;20177;-76
2022/09/24 05:53:32;;;;;;;15.82;5.18;;;;;;;15.61;53.91;95303.28;5011298;28;20172;-77
2022/09/24 05:55:58;;;;;;;7.13;5.47;;;;;;;15.59;54.30;95297.41;5011309;28;20192;-77
2022/09/24 05:58:23;;;;;;;7.75;4.90;;;;;;;15.59;53.83;95315.97;5011561;28;20706;-79
2022/09/24 06:00:50;;;;;;;9.32;5.88;;;;;;;15.70;53.15;95309.88;5011725;28;20219;-78
2022/09/24 06:03:16;;;;;;;10.07;5.60;;;;;;;15.76;53.44;95317.72;5011077;28;20196;-76
2022/09/24 06:05:45;;;;;;;7.85;5.22;;;;;;;15.57;53.82;95310.91;5011548;28;20184;-76
2022/09/24 06:08:11;;;;;;;7.90;5.35;;;;;;;15.54;54.46;95315.88;5010869;28;20231;-76
2022/09/24 06:10:36;;;;;;;7.40;5.32;;;;;;;15.64;54.88;95316.13;5011596;28;20312;-76
2022/09/24 06:13:02;;;;;;;9.30;5.50;;;;;;;15.69;54.53;95308.25;5011259;28;20347;-76
2022/09/24 06:15:28;;;;;;;8.30;5.20;;;;;;;15.78;54.34;95320.13;5010698;28;20196;-76
2022/09/24 06:17:54;;;;;;;7.65;5.15;;;;;;;15.98;52.93;95325.09;5011512;28;20185;-76
2022/09/24 06:20:20;;;;;;;8.00;5.18;;;;;;;15.90;53.47;95322.81;5011076;28;20920;-76
2022/09/24 06:22:45;;;;;;;8.00;5.47;;;;;;;15.73;52.89;95330.66;5010277;28;20179;-76
2022/09/24 06:25:11;;;;;;;7.40;4.38;;;;;;;15.75;54.21;95331.22;5010383;28;20168;-76
2022/09/24 06:27:36;;;;;;;5.97;4.70;;;;;;;15.82;53.05;95326.63;5010488;28;20266;-76
2022/09/24 06:30:03;;;;;;;7.32;4.88;;;;;;;15.49;53.20;95298.75;5010593;28;20171;-76
2022/09/24 06:32:29;;;;;;;5.97;4.80;;;;;;;15.64;53.18;95332.03;5010318;28;20168;-76
2022/09/24 06:34:54;;;;;;;6.47;4.95;;;;;;;15.54;53.54;95331.78;5011313;28;20188;-75
2022/09/24 06:37:20;;;;;;;9.32;4.78;;;;;;;15.51;53.51;95332.22;5014881;28;20255;-76
2022/09/24 06:39:45;;;;;;;8.93;4.63;;;;;;;15.52;52.53;95329.34;5014853;28;21062;-76
2022/09/24 06:42:11;;;;;;;9.35;4.68;;;;;;;15.18;53.21;95290.31;5018427;28;20179;-76
2022/09/24 06:44:36;;;;;;;6.32;4.22;;;;;;;15.26;53.69;95332.41;5022061;28;20186;-75
2022/09/24 06:47:02;;;;;;;6.50;4.47;;;;;;;15.36;54.81;95327.34;5034407;28;20168;-76
2022/09/24 06:49:28;;;;;;;8.83;5.23;;;;;;;15.62;53.04;95318.19;5013410;28;20180;-76
2022/09/24 06:51:53;;;;;;;8.48;4.63;;;;;;;15.93;52.46;95328.44;4999551;28;20196;-76
2022/09/24 06:54:19;;;;;;;6.60;4.10;;;;;;;16.11;52.34;95330.97;5020287;28;20195;-75
2022/09/24 06:56:45;;;;;;;10.50;4.50;;;;;;;16.18;51.46;95326.31;5014321;28;20200;-76
2022/09/24 06:59:11;;;;;;;8.23;5.00;;;;;;;16.34;52.67;95322.16;5006798;28;20263;-77
2022/09/24 07:01:36;;;;;;;8.43;5.65;;;;;;;16.55;51.10;95329.47;5014617;28;20184;-75
2022/09/24 07:04:01;;;;;;;10.40;4.90;;;;;;;16.71;50.93;95333.28;5010021;28;20243;-75
2022/09/24 07:07:28;;;;;;;9.98;5.10;;;;;;;16.59;50.87;95314.69;5016598;28;20184;-76
2022/09/24 07:09:12;;;;;;;10.68;5.25;;;;;;;16.88;51.09;95334.13;5011576;28;20173;-76
2022/09/24 07:11:38;;;;;;;6.32;4.70;;;;;;;17.18;49.68;95341.84;5003131;28;20220;-76
2022/09/24 07:14:03;;;;;;;8.38;5.70;;;;;;;17.38;50.24;95341.41;5012208;28;20191;-76
2022/09/24 07:16:29;;;;;;;8.00;5.13;;;;;;;17.27;49.72;95339.63;4992991;28;20185;-76
2022/09/24 07:18:54;;;;;;;7.15;5.80;;;;;;;17.44;48.48;95331.63;4994568;28;20181;-76
2022/09/24 07:21:19;;;;;;;10.93;5.72;;;;;;;17.51;48.49;95327.75;5000810;28;20225;-75
2022/09/24 07:23:46;;;;;;;11.25;5.90;;;;;;;17.44;47.97;95326.31;5003511;28;20218;-76
2022/09/24 07:26:11;;;;;;;14.40;6.13;;;;;;;17.55;48.98;95328.91;5004980;28;20176;-75
2022/09/24 07:28:36;;;;;;;12.40;5.88;;;;;;;17.65;48.23;95329.06;5000130;28;20320;-75
2022/09/24 07:31:02;;;;;;;9.00;5.50;;;;;;;17.60;48.65;95325.50;5001603;28;20274;-75
2022/09/24 07:33:30;;;;;;;9.00;5.95;;;;;;;17.82;48.47;95321.06;4997931;28;20196;-75
2022/09/24 07:35:56;;;;;;;8.05;5.95;;;;;;;17.94;47.05;95335.13;4994109;28;20240;-75
2022/09/24 07:38:22;;;;;;;9.20;6.03;;;;;;;17.96;47.13;95310.91;5000825;28;20271;-75
2022/09/24 07:40:48;;;;;;;8.07;5.97;;;;;;;17.91;47.64;95287.63;5003193;28;20652;-75
2022/09/24 07:43:13;;;;;;;14.65;6.47;;;;;;;18.16;47.28;95319.19;5000514;28;20195;-75
2022/09/24 07:45:40;;;;;;;10.73;5.90;;;;;;;18.21;48.79;95326.41;5000767;28;20254;-75
2022/09/24 07:48:06;;;;;;;12.70;6.40;;;;;;;18.51;47.35;95328.69;5001743;28;20559;-75
2022/09/24 07:50:37;;;;;;;14.63;6.20;;;;;;;18.23;46.38;95314.47;5008371;28;20204;-75
2022/09/24 07:53:03;;;;;;;11.57;6.05;;;;;;;18.52;47.32;95316.94;5000722;28;20188;-75
2022/09/24 07:55:28;;;;;;;12.13;6.07;;;;;;;18.69;46.12;95318.50;5000643;28;20205;-75
2022/09/24 07:57:54;;;;;;;7.55;5.72;;;;;;;18.66;45.01;95279.00;4998091;28;20676;-74
2022/09/24 08:00:21;;;;;;;25.15;6.40;;;;;;;19.19;45.50;95322.78;4999918;28;20558;-75
2022/09/24 08:02:47;;;;;;;8.98;5.70;;;;;;;18.75;44.21;95303.38;5004702;28;20184;-75
2022/09/24 08:05:15;;;;;;;11.32;6.38;;;;;;;18.85;44.23;95317.59;5001654;28;20184;-76
2022/09/24 08:07:41;;;;;;;12.35;6.63;;;;;;;18.85;44.95;95322.16;5004507;28;20238;-74
2022/09/24 08:10:07;;;;;;;9.95;6.53;;;;;;;18.55;45.17;95313.78;4998880;28;20264;-74
2022/09/24 08:12:33;;;;;;;9.95;6.10;;;;;;;18.16;45.34;95308.50;5000437;28;20181;-74
2022/09/24 08:14:58;;;;;;;9.82;6.65;;;;;;;18.29;47.75;95313.47;5001512;28;20255;-75
2022/09/24 08:17:25;;;;;;;11.02;6.70;;;;;;;18.27;45.64;95312.09;4999174;28;20656;-77
2022/09/24 08:19:52;;;;;;;12.27;6.32;;;;;;;18.17;45.62;95318.09;5002096;28;20263;-76
2022/09/24 08:22:17;;;;;;;10.48;6.32;;;;;;;18.28;47.34;95295.06;5006123;28;20551;-76
2022/09/24 08:24:43;;;;;;;13.98;7.30;;;;;;;18.60;45.56;95309.31;5009505;28;20184;-76
2022/09/24 08:27:08;;;;;;;11.50;6.50;;;;;;;18.79;44.08;95304.47;4998853;28;20246;-76
2022/09/24 08:29:34;;;;;;;13.98;6.90;;;;;;;18.44;45.01;95310.19;5001760;28;20195;-76
2022/09/24 08:32:00;;;;;;;10.68;5.93;;;;;;;18.44;46.02;95299.50;5018725;28;20184;-76
2022/09/24 08:34:25;;;;;;;12.55;6.85;;;;;;;18.62;45.52;95307.22;5003991;28;20204;-76
2022/09/24 08:36:51;;;;;;;12.30;6.38;;;;;;;18.59;45.10;95301.59;4993815;28;20188;-80
2022/09/24 08:39:16;;;;;;;10.88;6.38;;;;;;;18.70;46.77;95305.97;5006582;28;20203;-76
2022/09/24 08:41:55;;;;;;;11.18;5.95;;;;;;;19.01;45.29;95304.44;5010360;28;20604;-78
2022/09/24 08:47:36;;;;;;;9.23;6.05;;;;;;;18.78;46.95;95298.34;5000773;28;20645;-76
2022/09/24 08:50:15;;;;;;;10.43;6.45;;;;;;;18.81;46.64;95294.38;5005065;28;20267;-76
2022/09/24 08:52:44;;;;;;;11.70;6.63;;;;;;;18.83;46.43;95290.41;4981146;28;20579;-77
2022/09/24 08:55:28;;;;;;;13.32;5.97;;;;;;;18.97;46.77;95287.31;5005359;28;20255;-77
2022/09/24 08:57:57;;;;;;;16.55;8.18;;;;;;;18.93;47.85;95287.03;5003387;28;20625;-78
2022/09/24 09:00:22;;;;;;;14.40;6.63;;;;;;;18.77;46.66;95262.03;4997728;28;20624;-77
2022/09/24 09:06:27;;;;;;;9.82;5.95;;;;;;;18.76;46.03;95272.97;5225925;22;20298;-79
2022/09/24 09:09:22;;;;;;;9.40;5.75;;;;;;;18.59;47.46;95269.59;4991473;28;20201;-79
2022/09/24 09:12:01;;;;;;;9.95;5.95;;;;;;;18.55;47.95;95268.44;4983342;28;20690;-79
2022/09/24 09:14:40;;;;;;;6.93;5.43;;;;;;;18.76;48.38;95267.66;5002598;28;20203;-79
2022/09/24 09:18:04;;;;;;;9.50;4.82;;;;;;;18.88;45.74;95272.81;4997371;28;20173;-79
2022/09/24 09:20:40;;;;;;;12.20;5.18;;;;;;;18.58;45.81;95274.13;4900235;29;20188;-79
2022/09/24 09:23:15;;;;;;;8.25;5.03;;;;;;;18.59;47.33;95267.75;4897244;29;20276;-79
2022/09/24 09:26:05;;;;;;;8.52;5.18;;;;;;;18.50;46.79;95255.06;4936105;28;20196;-79
2022/09/24 09:28:32;;;;;;;6.13;4.50;;;;;;;18.70;46.38;95269.44;4995896;28;20181;-79
2022/09/24 09:31:23;;;;;;;9.43;4.35;;;;;;;18.56;47.17;95257.53;4988367;28;20180;-79
2022/09/24 09:34:28;;;;;;;8.50;4.55;;;;;;;18.36;45.55;95255.44;4989786;28;20187;-78
2022/09/24 09:37:08;;;;;;;7.07;3.92;;;;;;;18.31;47.80;95250.06;4995376;28;20180;-79
2022/09/24 09:40:04;;;;;;;6.32;3.80;;;;;;;18.51;47.42;95243.34;4995061;28;20185;-80
2022/09/24 09:42:39;;;;;;;5.43;4.10;;;;;;;18.28;45.71;95215.91;4986841;28;20624;-80
2022/09/24 09:45:42;;;;;;;6.43;4.10;;;;;;;18.27;45.30;95230.28;4992422;28;20573;-79
2022/09/24 09:48:12;;;;;;;7.70;4.07;;;;;;;18.29;47.53;95222.03;4995269;28;20246;-79
2022/09/24 09:50:48;;;;;;;7.32;4.85;;;;;;;18.50;46.20;95226.53;4995535;28;20184;-79
2022/09/24 09:53:25;;;;;;;5.20;3.30;;;;;;;18.68;47.56;95225.44;4992062;28;20242;-79
2022/09/24 09:55:57;;;;;;;11.70;4.05;;;;;;;18.85;46.75;95218.91;4996302;28;20291;-79
2022/09/24 09:58:25;;;;;;;10.38;3.97;;;;;;;19.03;47.36;95211.56;4993955;28;20208;-78
2022/09/24 10:00:52;;;;;;;6.03;3.65;;;;;;;19.09;44.79;95200.72;5001090;28;20242;-79
2022/09/24 10:03:27;;;;;;;11.02;4.07;;;;;;;19.23;45.00;95207.22;4995451;28;20234;-75
2022/09/24 10:06:00;;;;;;;6.32;3.67;;;;;;;19.20;42.73;95204.22;4997108;28;20339;-76
2022/09/24 10:08:26;;;;;;;7.40;3.08;;;;;;;19.14;44.40;95197.25;4995158;28;20186;-78
2022/09/24 10:10:56;;;;;;;4.63;3.03;;;;;;;19.12;44.30;95194.84;4998971;28;20198;-78
2022/09/24 10:13:23;;;;;;;4.47;2.90;;;;;;;19.02;45.67;95172.63;5000931;28;20573;-77
2022/09/24 10:16:03;;;;;;;6.78;3.08;;;;;;;19.20;46.81;95188.22;5002143;28;20679;-76
2022/09/24 10:18:49;;;;;;;9.02;4.38;;;;;;;19.20;45.99;95189.03;4995313;28;20212;-77
2022/09/24 10:21:44;;;;;;;6.43;2.83;;;;;;;19.21;41.38;95187.97;4994196;28;20250;-76
2022/09/24 10:24:15;;;;;;;4.78;2.47;;;;;;;19.10;40.68;95185.50;4978663;28;20569;-78
2022/09/24 10:26:43;;;;;;;2.67;1.92;;;;;;;19.08;40.66;95198.28;4981643;28;20196;-78
2022/09/24 10:32:03;;;;;;;3.08;2.30;;;;;;;19.03;40.37;95185.69;4989625;28;20282;-78
2022/09/24 10:34:28;;;;;;;2.92;1.98;;;;;;;19.04;39.38;95176.63;4991318;28;20212;-77
2022/09/24 10:37:01;;;;;;;4.72;2.17;;;;;;;18.98;40.80;95183.00;4996854;28;20184;-78
2022/09/24 10:39:27;;;;;;;2.72;1.92;;;;;;;19.03;40.42;95183.03;4995856;28;20184;-76
2022/09/24 10:41:57;;;;;;;3.58;2.15;;;;;;;19.08;38.95;95180.41;4994111;28;20196;-77
2022/09/24 10:44:28;;;;;;;5.45;2.22;;;;;;;18.97;39.30;95165.38;4991338;28;20189;-78
2022/09/24 10:47:20;;;;;;;4.80;2.53;;;;;;;18.90;39.59;95156.78;4992031;28;20189;-77
2022/09/24 10:50:19;;;;;;;5.28;2.45;;;;;;;19.11;39.69;95181.78;4989999;28;20185;-77
2022/09/24 10:53:12;;;;;;;4.40;2.38;;;;;;;19.13;39.47;95180.44;4983704;28;20196;-77
2022/09/24 10:55:40;;;;;;;7.05;2.53;;;;;;;19.09;39.59;95165.19;4999452;28;20216;-77
2022/09/24 10:58:25;;;;;;;2.67;1.98;;;;;;;19.23;38.00;95177.03;4995167;28;20545;-78
2022/09/24 11:01:05;;;;;;;4.03;1.92;;;;;;;19.21;38.49;95182.63;4991271;28;20196;-75
2022/09/24 11:04:09;;;;;;;8.43;2.35;;;;;;;19.23;38.90;95180.50;4997273;28;20180;-77
2022/09/24 11:06:47;;;;;;;3.22;2.50;;;;;;;19.25;39.12;95187.47;4971719;28;20235;-77
2022/09/24 11:09:15;;;;;;;3.67;2.17;;;;;;;19.30;37.92;95176.81;4986950;28;20192;-77
2022/09/24 11:12:04;;;;;;;4.28;2.45;;;;;;;19.28;39.41;95171.75;4988708;28;20185;-74
2022/09/24 11:14:55;;;;;;;7.28;2.92;;;;;;;19.33;39.54;95173.63;4995598;28;20254;-76
2022/09/24 11:17:32;;;;;;;8.15;3.60;;;;;;;19.43;39.41;95169.16;4973369;28;20629;-76
2022/09/24 11:19:57;;;;;;;3.60;2.45;;;;;;;19.47;38.98;95156.94;4990267;28;20275;-75
2022/09/24 11:22:46;;;;;;;2.67;2.17;;;;;;;19.55;38.22;95163.63;4993366;28;20649;-75
2022/09/24 11:25:21;;;;;;;8.10;2.40;;;;;;;19.51;38.39;95155.34;4993914;28;20180;-74
2022/09/24 11:27:54;;;;;;;5.40;2.22;;;;;;;19.55;39.27;95144.94;4992654;28;20177;-75
2022/09/24 11:30:35;;;;;;;3.95;2.67;;;;;;;19.59;39.76;95135.38;4990694;28;20181;-76
2022/09/24 11:33:13;;;;;;;2.00;1.80;;;;;;;19.62;38.29;95142.06;4986853;28;20620;-76
2022/09/24 11:36:00;;;;;;;3.42;1.90;;;;;;;19.67;37.56;95142.88;4990221;28;20203;-76
2022/09/24 11:38:37;;;;;;;5.78;2.13;;;;;;;19.65;38.84;95131.66;4992047;28;20191;-76
2022/09/24 11:41:09;;;;;;;2.58;2.00;;;;;;;19.69;39.18;95123.91;4996096;28;20203;-75
2022/09/24 11:43:53;;;;;;;3.28;1.70;;;;;;;19.73;38.77;95131.16;5000494;28;20196;-75
2022/09/24 11:46:21;;;;;;;3.75;2.35;;;;;;;19.74;38.86;95127.41;5004423;28;20192;-76
2022/09/24 11:49:07;;;;;;;4.60;2.03;;;;;;;19.80;38.14;95126.38;4999251;28;20211;-75
2022/09/24 11:51:45;;;;;;;2.47;2.10;;;;;;;19.88;38.52;95125.06;5000764;28;20200;-75
2022/09/24 11:54:18;;;;;;;1.90;1.75;;;;;;;19.80;37.44;95109.56;5002124;28;20211;-75
2022/09/24 11:56:49;;;;;;;6.55;2.58;;;;;;;19.89;37.72;95124.78;4999972;28;20180;-75
2022/09/24 11:59:55;;;;;;;4.13;2.08;;;;;;;19.89;37.74;95124.78;5001515;28;20216;-75